Terminal Aerodrome Forecast
Issued by NWS

Home | Current Version | Previous Version | Text Only | Print | Product List | Glossary On
Versions: 1 2 3 4 5 6 7 8 9 10 11 12 13 14 15 16 17 18 19 20 21 22 23 24 25 26 27 28 29 30
000
FTUS44 KOUN 191120
TAFWWR
TAF
KWWR 191120Z 1912/2012 00000KT 1/2SM FG OVC002
     FM191600 17006KT 1SM BR OVC003
     FM191900 18007KT 3SM BR OVC007
     FM192100 19007KT P6SM OVC007
     FM200000 19005KT P6SM OVC015=

USA.gov is the U.S. government's official web portal to all federal, state and local government web resources and services.